sensor_id;sensor_type;location;lat;lon;timestamp;temperature;humidity
1015;DHT22;8170;48.118;11.628;2022-09-21T00:01:04;7.20;99.90
1015;DHT22;8170;48.118;11.628;2022-09-21T00:02:09;7.20;99.90
1015;DHT22;8170;48.118;11.628;2022-09-21T00:03:13;7.10;99.90
1015;DHT22;8170;48.118;11.628;2022-09-21T00:04:16;7.10;99.90
1015;DHT22;8170;48.118;11.628;2022-09-21T00:05:19;7.00;99.90
1015;DHT22;8170;48.118;11.628;2022-09-21T00:06:23;7.00;99.90
1015;DHT22;8170;48.118;11.628;2022-09-21T00:07:26;7.00;99.90
1015;DHT22;8170;48.118;11.628;2022-09-21T00:08:28;7.00;99.90
1015;DHT22;8170;48.118;11.628;2022-09-21T00:09:31;7.00;99.90
1015;DHT22;8170;48.118;11.628;2022-09-21T00:10:33;7.00;99.90
1015;DHT22;8170;48.118;11.628;2022-09-21T00:11:36;7.00;99.90
1015;DHT22;8170;48.118;11.628;2022-09-21T00:12:38;7.00;99.90
1015;DHT22;8170;48.118;11.628;2022-09-21T00:13:41;7.00;99.90
1015;DHT22;8170;48.118;11.628;2022-09-21T00:14:46;7.00;99.90
1015;DHT22;8170;48.118;11.628;2022-09-21T00:15:49;6.90;99.90
1015;DHT22;8170;48.118;11.628;2022-09-21T00:16:51;6.90;99.90
1015;DHT22;8170;48.118;11.628;2022-09-21T00:17:57;6.90;99.90
1015;DHT22;8170;48.118;11.628;2022-09-21T00:19:00;6.90;99.90
1015;DHT22;8170;48.118;11.628;2022-09-21T00:20:04;6.90;99.90
1015;DHT22;8170;48.118;11.628;2022-09-21T00:21:07;6.80;99.90
1015;DHT22;8170;48.118;11.628;2022-09-21T00:22:10;6.80;99.90
1015;DHT22;8170;48.118;11.628;2022-09-21T00:23:12;6.90;99.90
1015;DHT22;8170;48.118;11.628;2022-09-21T00:24:15;6.90;99.90
1015;DHT22;8170;48.118;11.628;2022-09-21T00:25:18;6.90;99.90
1015;DHT22;8170;48.118;11.628;2022-09-21T00:26:22;6.90;99.90
1015;DHT22;8170;48.118;11.628;2022-09-21T00:27:25;6.90;99.90
1015;DHT22;8170;48.118;11.628;2022-09-21T00:28:30;6.80;99.90
1015;DHT22;8170;48.118;11.628;2022-09-21T00:29:32;6.80;99.90
1015;DHT22;8170;48.118;11.628;2022-09-21T00:30:36;6.70;99.90
1015;DHT22;8170;48.118;11.628;2022-09-21T00:31:38;6.60;99.90
1015;DHT22;8170;48.118;11.628;2022-09-21T00:32:41;6.60;99.90
1015;DHT22;8170;48.118;11.628;2022-09-21T00:33:45;6.60;99.90
1015;DHT22;8170;48.118;11.628;2022-09-21T00:34:48;6.70;99.90
1015;DHT22;8170;48.118;11.628;2022-09-21T00:35:50;6.70;99.90
1015;DHT22;8170;48.118;11.628;2022-09-21T00:36:53;6.70;99.90
1015;DHT22;8170;48.118;11.628;2022-09-21T00:37:59;6.70;99.90
1015;DHT22;8170;48.118;11.628;2022-09-21T00:39:02;6.80;99.90
1015;DHT22;8170;48.118;11.628;2022-09-21T00:40:06;6.80;99.90
1015;DHT22;8170;48.118;11.628;2022-09-21T00:41:09;6.80;99.90
1015;DHT22;8170;48.118;11.628;2022-09-21T00:42:16;6.80;99.90
1015;DHT22;8170;48.118;11.628;2022-09-21T00:43:19;6.80;99.90
1015;DHT22;8170;48.118;11.628;2022-09-21T00:44:29;6.90;99.90
1015;DHT22;8170;48.118;11.628;2022-09-21T00:45:31;6.90;99.90
1015;DHT22;8170;48.118;11.628;2022-09-21T00:46:35;6.90;99.90
1015;DHT22;8170;48.118;11.628;2022-09-21T00:47:42;6.90;99.90
1015;DHT22;8170;48.118;11.628;2022-09-21T00:48:47;6.90;99.90
1015;DHT22;8170;48.118;11.628;2022-09-21T00:49:52;6.90;99.90
1015;DHT22;8170;48.118;11.628;2022-09-21T00:50:58;6.90;99.90
1015;DHT22;8170;48.118;11.628;2022-09-21T00:52:04;6.90;99.90
1015;DHT22;8170;48.118;11.628;2022-09-21T00:53:08;6.90;99.90
1015;DHT22;8170;48.118;11.628;2022-09-21T00:54:13;6.90;99.90
1015;DHT22;8170;48.118;11.628;2022-09-21T00:55:22;6.90;99.90
1015;DHT22;8170;48.118;11.628;2022-09-21T00:56:26;6.90;99.90
1015;DHT22;8170;48.118;11.628;2022-09-21T00:57:30;6.90;99.90
1015;DHT22;8170;48.118;11.628;2022-09-21T00:58:37;6.90;99.90
1015;DHT22;8170;48.118;11.628;2022-09-21T00:59:42;6.90;99.90
1015;DHT22;8170;48.118;11.628;2022-09-21T01:00:45;6.90;99.90
1015;DHT22;8170;48.118;11.628;2022-09-21T01:01:48;6.90;99.90
1015;DHT22;8170;48.118;11.628;2022-09-21T01:02:52;6.90;99.90
1015;DHT22;8170;48.118;11.628;2022-09-21T01:04:04;6.90;99.90
1015;DHT22;8170;48.118;11.628;2022-09-21T01:05:09;6.90;99.90
1015;DHT22;8170;48.118;11.628;2022-09-21T01:06:14;7.00;99.90
1015;DHT22;8170;48.118;11.628;2022-09-21T01:07:19;7.00;99.90
1015;DHT22;8170;48.118;11.628;2022-09-21T01:08:25;7.00;99.90
1015;DHT22;8170;48.118;11.628;2022-09-21T01:09:27;7.00;99.90
1015;DHT22;8170;48.118;11.628;2022-09-21T01:10:37;7.00;99.90
1015;DHT22;8170;48.118;11.628;2022-09-21T01:11:51;7.00;99.90
1015;DHT22;8170;48.118;11.628;2022-09-21T01:13:06;7.00;99.90
1015;DHT22;8170;48.118;11.628;2022-09-21T01:14:25;7.00;99.90
1015;DHT22;8170;48.118;11.628;2022-09-21T01:15:38;7.00;99.90
1015;DHT22;8170;48.118;11.628;2022-09-21T01:16:46;7.00;99.90
1015;DHT22;8170;48.118;11.628;2022-09-21T01:17:58;7.00;99.90
1015;DHT22;8170;48.118;11.628;2022-09-21T01:19:13;7.00;99.90
1015;DHT22;8170;48.118;11.628;2022-09-21T01:21:53;7.00;99.90
1015;DHT22;8170;48.118;11.628;2022-09-21T01:23:15;7.00;99.90
1015;DHT22;8170;48.118;11.628;2022-09-21T01:24:34;7.00;99.90
1015;DHT22;8170;48.118;11.628;2022-09-21T01:25:48;7.00;99.90
1015;DHT22;8170;48.118;11.628;2022-09-21T01:27:12;6.90;99.90
1015;DHT22;8170;48.118;11.628;2022-09-21T01:28:27;6.90;99.90
1015;DHT22;8170;48.118;11.628;2022-09-21T01:29:37;6.80;99.90
1015;DHT22;8170;48.118;11.628;2022-09-21T01:30:43;6.80;99.90
1015;DHT22;8170;48.118;11.628;2022-09-21T01:31:53;6.80;99.90
1015;DHT22;8170;48.118;11.628;2022-09-21T01:32:58;6.80;99.90
1015;DHT22;8170;48.118;11.628;2022-09-21T01:34:08;6.80;99.90
1015;DHT22;8170;48.118;11.628;2022-09-21T01:35:15;6.80;99.90
1015;DHT22;8170;48.118;11.628;2022-09-21T01:36:21;6.80;99.90
1015;DHT22;8170;48.118;11.628;2022-09-21T01:37:30;6.80;99.90
1015;DHT22;8170;48.118;11.628;2022-09-21T01:38:37;6.80;99.90
1015;DHT22;8170;48.118;11.628;2022-09-21T01:39:44;6.70;99.90
1015;DHT22;8170;48.118;11.628;2022-09-21T01:40:51;6.70;99.90
1015;DHT22;8170;48.118;11.628;2022-09-21T01:41:55;6.60;99.90
1015;DHT22;8170;48.118;11.628;2022-09-21T01:43:00;6.60;99.90
1015;DHT22;8170;48.118;11.628;2022-09-21T01:44:07;6.60;99.90
1015;DHT22;8170;48.118;11.628;2022-09-21T01:45:14;6.60;99.90
1015;DHT22;8170;48.118;11.628;2022-09-21T01:46:20;6.70;99.90
1015;DHT22;8170;48.118;11.628;2022-09-21T01:47:23;6.60;99.90
1015;DHT22;8170;48.118;11.628;2022-09-21T01:48:26;6.70;99.90
1015;DHT22;8170;48.118;11.628;2022-09-21T01:49:35;6.70;99.90
1015;DHT22;8170;48.118;11.628;2022-09-21T01:50:43;6.60;99.90
1015;DHT22;8170;48.118;11.628;2022-09-21T01:51:52;6.60;99.90
1015;DHT22;8170;48.118;11.628;2022-09-21T01:52:59;6.60;99.90
1015;DHT22;8170;48.118;11.628;2022-09-21T01:54:07;6.60;99.90
1015;DHT22;8170;48.118;11.628;2022-09-21T01:55:14;6.60;99.90
1015;DHT22;8170;48.118;11.628;2022-09-21T01:56:21;6.50;99.90
1015;DHT22;8170;48.118;11.628;2022-09-21T01:57:29;6.50;99.90
1015;DHT22;8170;48.118;11.628;2022-09-21T01:58:38;6.50;99.90
1015;DHT22;8170;48.118;11.628;2022-09-21T01:59:48;6.50;99.90
1015;DHT22;8170;48.118;11.628;2022-09-21T02:00:54;6.50;99.90
1015;DHT22;8170;48.118;11.628;2022-09-21T02:02:01;6.50;99.90
1015;DHT22;8170;48.118;11.628;2022-09-21T02:03:09;6.50;99.90
1015;DHT22;8170;48.118;11.628;2022-09-21T02:04:14;6.50;99.90
1015;DHT22;8170;48.118;11.628;2022-09-21T02:05:18;6.50;99.90
1015;DHT22;8170;48.118;11.628;2022-09-21T02:06:24;6.50;99.90
1015;DHT22;8170;48.118;11.628;2022-09-21T02:07:27;6.50;99.90
1015;DHT22;8170;48.118;11.628;2022-09-21T02:08:31;6.50;99.90
1015;DHT22;8170;48.118;11.628;2022-09-21T02:09:34;6.40;99.90
1015;DHT22;8170;48.118;11.628;2022-09-21T02:10:43;6.40;99.90
1015;DHT22;8170;48.118;11.628;2022-09-21T02:11:47;6.30;99.90
1015;DHT22;8170;48.118;11.628;2022-09-21T02:12:52;6.30;99.90
1015;DHT22;8170;48.118;11.628;2022-09-21T02:13:57;6.30;99.90
1015;DHT22;8170;48.118;11.628;2022-09-21T02:15:00;6.30;99.90
1015;DHT22;8170;48.118;11.628;2022-09-21T02:16:18;6.30;99.90
1015;DHT22;8170;48.118;11.628;2022-09-21T02:17:31;6.30;99.90
1015;DHT22;8170;48.118;11.628;2022-09-21T02:18:42;6.30;99.90
1015;DHT22;8170;48.118;11.628;2022-09-21T02:19:51;6.30;99.90
1015;DHT22;8170;48.118;11.628;2022-09-21T02:20:59;6.30;99.90
1015;DHT22;8170;48.118;11.628;2022-09-21T02:22:04;6.20;99.90
1015;DHT22;8170;48.118;11.628;2022-09-21T02:23:13;6.20;99.90
1015;DHT22;8170;48.118;11.628;2022-09-21T02:24:24;6.10;99.90
1015;DHT22;8170;48.118;11.628;2022-09-21T02:25:40;6.00;99.90
1015;DHT22;8170;48.118;11.628;2022-09-21T02:26:49;6.00;99.90
1015;DHT22;8170;48.118;11.628;2022-09-21T02:28:00;6.00;99.90
1015;DHT22;8170;48.118;11.628;2022-09-21T02:29:11;6.00;99.90
1015;DHT22;8170;48.118;11.628;2022-09-21T02:30:18;6.00;99.90
1015;DHT22;8170;48.118;11.628;2022-09-21T02:31:29;6.00;99.90
1015;DHT22;8170;48.118;11.628;2022-09-21T02:32:37;6.00;99.90
1015;DHT22;8170;48.118;11.628;2022-09-21T02:33:49;5.90;99.90
1015;DHT22;8170;48.118;11.628;2022-09-21T02:35:01;5.90;99.90
1015;DHT22;8170;48.118;11.628;2022-09-21T02:36:08;5.90;99.90
1015;DHT22;8170;48.118;11.628;2022-09-21T02:37:19;5.90;99.90
1015;DHT22;8170;48.118;11.628;2022-09-21T02:38:32;5.90;99.90
1015;DHT22;8170;48.118;11.628;2022-09-21T02:39:41;5.90;99.90
1015;DHT22;8170;48.118;11.628;2022-09-21T02:40:51;5.90;99.90
1015;DHT22;8170;48.118;11.628;2022-09-21T02:42:02;5.80;99.90
1015;DHT22;8170;48.118;11.628;2022-09-21T02:43:09;5.80;99.90
1015;DHT22;8170;48.118;11.628;2022-09-21T02:44:17;5.80;99.90
1015;DHT22;8170;48.118;11.628;2022-09-21T02:45:23;5.90;99.90
1015;DHT22;8170;48.118;11.628;2022-09-21T02:46:33;5.90;99.90
1015;DHT22;8170;48.118;11.628;2022-09-21T02:47:40;5.90;99.90
1015;DHT22;8170;48.118;11.628;2022-09-21T02:48:47;5.90;99.90
1015;DHT22;8170;48.118;11.628;2022-09-21T02:49:52;5.90;99.90
1015;DHT22;8170;48.118;11.628;2022-09-21T02:51:01;5.90;99.90
1015;DHT22;8170;48.118;11.628;2022-09-21T02:52:09;5.80;99.90
1015;DHT22;8170;48.118;11.628;2022-09-21T02:53:14;5.80;99.90
1015;DHT22;8170;48.118;11.628;2022-09-21T02:54:20;5.70;99.90
1015;DHT22;8170;48.118;11.628;2022-09-21T02:55:24;5.70;99.90
1015;DHT22;8170;48.118;11.628;2022-09-21T02:56:28;5.70;99.90
1015;DHT22;8170;48.118;11.628;2022-09-21T02:57:32;5.70;99.90
1015;DHT22;8170;48.118;11.628;2022-09-21T02:58:37;5.70;99.90
1015;DHT22;8170;48.118;11.628;2022-09-21T02:59:42;5.70;99.90
1015;DHT22;8170;48.118;11.628;2022-09-21T03:00:44;5.70;99.90
1015;DHT22;8170;48.118;11.628;2022-09-21T03:01:49;5.60;99.90
1015;DHT22;8170;48.118;11.628;2022-09-21T03:02:52;5.60;99.90
1015;DHT22;8170;48.118;11.628;2022-09-21T03:03:55;5.60;99.90
1015;DHT22;8170;48.118;11.628;2022-09-21T03:04:57;5.50;99.90
1015;DHT22;8170;48.118;11.628;2022-09-21T03:06:00;5.60;99.90
1015;DHT22;8170;48.118;11.628;2022-09-21T03:07:03;5.50;99.90
1015;DHT22;8170;48.118;11.628;2022-09-21T03:08:06;5.50;99.90
1015;DHT22;8170;48.118;11.628;2022-09-21T03:09:08;5.60;99.90
1015;DHT22;8170;48.118;11.628;2022-09-21T03:10:11;5.60;99.90
1015;DHT22;8170;48.118;11.628;2022-09-21T03:11:15;5.60;99.90
1015;DHT22;8170;48.118;11.628;2022-09-21T03:12:18;5.60;99.90
1015;DHT22;8170;48.118;11.628;2022-09-21T03:13:21;5.60;99.90
1015;DHT22;8170;48.118;11.628;2022-09-21T03:14:24;5.60;99.90
1015;DHT22;8170;48.118;11.628;2022-09-21T03:15:26;5.50;99.90
1015;DHT22;8170;48.118;11.628;2022-09-21T03:16:29;5.50;99.90
1015;DHT22;8170;48.118;11.628;2022-09-21T03:17:33;5.50;99.90
1015;DHT22;8170;48.118;11.628;2022-09-21T03:18:35;5.40;99.90
1015;DHT22;8170;48.118;11.628;2022-09-21T03:19:39;5.40;99.90
1015;DHT22;8170;48.118;11.628;2022-09-21T03:20:43;5.40;99.90
1015;DHT22;8170;48.118;11.628;2022-09-21T03:21:47;5.40;99.90
1015;DHT22;8170;48.118;11.628;2022-09-21T03:22:49;5.40;99.90
1015;DHT22;8170;48.118;11.628;2022-09-21T03:23:52;5.40;99.90
1015;DHT22;8170;48.118;11.628;2022-09-21T03:24:54;5.40;99.90
1015;DHT22;8170;48.118;11.628;2022-09-21T03:25:58;5.40;99.90
1015;DHT22;8170;48.118;11.628;2022-09-21T03:27:00;5.50;99.90
1015;DHT22;8170;48.118;11.628;2022-09-21T03:28:03;5.40;99.90
1015;DHT22;8170;48.118;11.628;2022-09-21T03:29:05;5.40;99.90
1015;DHT22;8170;48.118;11.628;2022-09-21T03:30:10;5.40;99.90
1015;DHT22;8170;48.118;11.628;2022-09-21T03:31:12;5.40;99.90
1015;DHT22;8170;48.118;11.628;2022-09-21T03:32:15;5.40;99.90
1015;DHT22;8170;48.118;11.628;2022-09-21T03:33:19;5.30;99.90
1015;DHT22;8170;48.118;11.628;2022-09-21T03:34:22;5.30;99.90
1015;DHT22;8170;48.118;11.628;2022-09-21T03:35:24;5.30;99.90
1015;DHT22;8170;48.118;11.628;2022-09-21T03:36:27;5.30;99.90
1015;DHT22;8170;48.118;11.628;2022-09-21T03:37:30;5.30;99.90
1015;DHT22;8170;48.118;11.628;2022-09-21T03:38:32;5.30;99.90
1015;DHT22;8170;48.118;11.628;2022-09-21T03:39:36;5.30;99.90
1015;DHT22;8170;48.118;11.628;2022-09-21T03:40:38;5.30;99.90
1015;DHT22;8170;48.118;11.628;2022-09-21T03:41:41;5.20;99.90
1015;DHT22;8170;48.118;11.628;2022-09-21T03:42:44;5.20;99.90
1015;DHT22;8170;48.118;11.628;2022-09-21T03:43:47;5.20;99.90
1015;DHT22;8170;48.118;11.628;2022-09-21T03:44:49;5.20;99.90
1015;DHT22;8170;48.118;11.628;2022-09-21T03:45:52;5.20;99.90
1015;DHT22;8170;48.118;11.628;2022-09-21T03:46:54;5.20;99.90
1015;DHT22;8170;48.118;11.628;2022-09-21T03:47:59;5.20;99.90
1015;DHT22;8170;48.118;11.628;2022-09-21T03:49:03;5.10;99.90
1015;DHT22;8170;48.118;11.628;2022-09-21T03:50:07;5.10;99.90
1015;DHT22;8170;48.118;11.628;2022-09-21T03:51:11;5.10;99.90
1015;DHT22;8170;48.118;11.628;2022-09-21T03:52:13;5.10;99.90
1015;DHT22;8170;48.118;11.628;2022-09-21T03:53:15;5.00;99.90
1015;DHT22;8170;48.118;11.628;2022-09-21T03:54:18;5.00;99.90
1015;DHT22;8170;48.118;11.628;2022-09-21T03:55:21;4.90;99.90
1015;DHT22;8170;48.118;11.628;2022-09-21T03:56:24;4.90;99.90
1015;DHT22;8170;48.118;11.628;2022-09-21T03:57:26;5.00;99.90
1015;DHT22;8170;48.118;11.628;2022-09-21T03:58:29;5.00;99.90
1015;DHT22;8170;48.118;11.628;2022-09-21T03:59:31;5.00;99.90
1015;DHT22;8170;48.118;11.628;2022-09-21T04:00:35;5.00;99.90
1015;DHT22;8170;48.118;11.628;2022-09-21T04:01:38;5.00;99.90
1015;DHT22;8170;48.118;11.628;2022-09-21T04:02:41;5.00;99.90
1015;DHT22;8170;48.118;11.628;2022-09-21T04:03:43;5.00;99.90
1015;DHT22;8170;48.118;11.628;2022-09-21T04:04:48;5.00;99.90
1015;DHT22;8170;48.118;11.628;2022-09-21T04:05:51;5.00;99.90
1015;DHT22;8170;48.118;11.628;2022-09-21T04:06:53;5.00;99.90
1015;DHT22;8170;48.118;11.628;2022-09-21T04:07:56;5.00;99.90
1015;DHT22;8170;48.118;11.628;2022-09-21T04:08:58;5.00;99.90
1015;DHT22;8170;48.118;11.628;2022-09-21T04:10:05;5.00;99.90
1015;DHT22;8170;48.118;11.628;2022-09-21T04:11:09;5.00;99.90
1015;DHT22;8170;48.118;11.628;2022-09-21T04:12:12;5.00;99.90
1015;DHT22;8170;48.118;11.628;2022-09-21T04:13:14;5.00;99.90
1015;DHT22;8170;48.118;11.628;2022-09-21T04:14:17;5.00;99.90
1015;DHT22;8170;48.118;11.628;2022-09-21T04:15:19;5.00;99.90
1015;DHT22;8170;48.118;11.628;2022-09-21T04:16:23;4.90;99.90
1015;DHT22;8170;48.118;11.628;2022-09-21T04:17:26;4.90;99.90
1015;DHT22;8170;48.118;11.628;2022-09-21T04:18:28;4.90;99.90
1015;DHT22;8170;48.118;11.628;2022-09-21T04:19:32;4.90;99.90
1015;DHT22;8170;48.118;11.628;2022-09-21T04:20:36;4.90;99.90
1015;DHT22;8170;48.118;11.628;2022-09-21T04:21:39;4.90;99.90
1015;DHT22;8170;48.118;11.628;2022-09-21T04:22:41;4.90;99.90
1015;DHT22;8170;48.118;11.628;2022-09-21T04:23:45;4.90;99.90
1015;DHT22;8170;48.118;11.628;2022-09-21T04:24:47;4.90;99.90
1015;DHT22;8170;48.118;11.628;2022-09-21T04:25:50;4.90;99.90
1015;DHT22;8170;48.118;11.628;2022-09-21T04:26:54;4.90;99.90
1015;DHT22;8170;48.118;11.628;2022-09-21T04:27:57;4.80;99.90
1015;DHT22;8170;48.118;11.628;2022-09-21T04:28:59;4.80;99.90
1015;DHT22;8170;48.118;11.628;2022-09-21T04:30:03;4.80;99.90
1015;DHT22;8170;48.118;11.628;2022-09-21T04:31:05;4.80;99.90
1015;DHT22;8170;48.118;11.628;2022-09-21T04:32:09;4.80;99.90
1015;DHT22;8170;48.118;11.628;2022-09-21T04:33:11;4.70;99.90
1015;DHT22;8170;48.118;11.628;2022-09-21T04:34:15;4.70;99.90
1015;DHT22;8170;48.118;11.628;2022-09-21T04:35:17;4.70;99.90
1015;DHT22;8170;48.118;11.628;2022-09-21T04:36:23;4.70;99.90
1015;DHT22;8170;48.118;11.628;2022-09-21T04:37:26;4.70;99.90
1015;DHT22;8170;48.118;11.628;2022-09-21T04:38:30;4.80;99.90
1015;DHT22;8170;48.118;11.628;2022-09-21T04:39:32;4.80;99.90
1015;DHT22;8170;48.118;11.628;2022-09-21T04:40:35;4.80;99.90
1015;DHT22;8170;48.118;11.628;2022-09-21T04:41:37;4.80;99.90
1015;DHT22;8170;48.118;11.628;2022-09-21T04:42:40;4.80;99.90
1015;DHT22;8170;48.118;11.628;2022-09-21T04:43:43;4.80;99.90
1015;DHT22;8170;48.118;11.628;2022-09-21T04:44:46;4.80;99.90
1015;DHT22;8170;48.118;11.628;2022-09-21T04:45:48;4.80;99.90
1015;DHT22;8170;48.118;11.628;2022-09-21T04:46:51;4.80;99.90
1015;DHT22;8170;48.118;11.628;2022-09-21T04:47:53;4.80;99.90
1015;DHT22;8170;48.118;11.628;2022-09-21T04:48:56;4.80;99.90
1015;DHT22;8170;48.118;11.628;2022-09-21T04:49:58;4.80;99.90
1015;DHT22;8170;48.118;11.628;2022-09-21T04:51:01;4.80;99.90
1015;DHT22;8170;48.118;11.628;2022-09-21T04:52:04;4.80;99.90
1015;DHT22;8170;48.118;11.628;2022-09-21T04:53:07;4.70;99.90
1015;DHT22;8170;48.118;11.628;2022-09-21T04:54:09;4.70;99.90
1015;DHT22;8170;48.118;11.628;2022-09-21T04:55:12;4.70;99.90
1015;DHT22;8170;48.118;11.628;2022-09-21T04:56:16;4.70;99.90
1015;DHT22;8170;48.118;11.628;2022-09-21T04:57:18;4.70;99.90
1015;DHT22;8170;48.118;11.628;2022-09-21T04:58:21;4.70;99.90
1015;DHT22;8170;48.118;11.628;2022-09-21T04:59:25;4.70;99.90
1015;DHT22;8170;48.118;11.628;2022-09-21T05:00:28;4.70;99.90
1015;DHT22;8170;48.118;11.628;2022-09-21T05:01:30;4.70;99.90
1015;DHT22;8170;48.118;11.628;2022-09-21T05:02:33;4.70;99.90
1015;DHT22;8170;48.118;11.628;2022-09-21T05:03:36;4.70;99.90
1015;DHT22;8170;48.118;11.628;2022-09-21T05:04:39;4.70;99.90
1015;DHT22;8170;48.118;11.628;2022-09-21T05:05:45;4.70;99.90
1015;DHT22;8170;48.118;11.628;2022-09-21T05:06:47;4.70;99.90
1015;DHT22;8170;48.118;11.628;2022-09-21T05:07:52;4.80;99.90
1015;DHT22;8170;48.118;11.628;2022-09-21T05:08:54;4.80;99.90
1015;DHT22;8170;48.118;11.628;2022-09-21T05:10:14;4.70;99.90
1015;DHT22;8170;48.118;11.628;2022-09-21T05:11:18;4.80;99.90
1015;DHT22;8170;48.118;11.628;2022-09-21T05:12:20;4.80;99.90
1015;DHT22;8170;48.118;11.628;2022-09-21T05:13:23;4.80;99.90
1015;DHT22;8170;48.118;11.628;2022-09-21T05:14:25;4.80;99.90
1015;DHT22;8170;48.118;11.628;2022-09-21T05:15:28;4.90;99.90
1015;DHT22;8170;48.118;11.628;2022-09-21T05:16:30;4.90;99.90
1015;DHT22;8170;48.118;11.628;2022-09-21T05:17:33;5.00;99.90
1015;DHT22;8170;48.118;11.628;2022-09-21T05:18:35;5.00;99.90
1015;DHT22;8170;48.118;11.628;2022-09-21T05:19:38;5.00;99.90
1015;DHT22;8170;48.118;11.628;2022-09-21T05:20:40;5.00;99.90
1015;DHT22;8170;48.118;11.628;2022-09-21T05:21:43;5.20;99.90
1015;DHT22;8170;48.118;11.628;2022-09-21T05:22:45;5.50;99.90
1015;DHT22;8170;48.118;11.628;2022-09-21T05:23:50;5.70;99.90
1015;DHT22;8170;48.118;11.628;2022-09-21T05:24:52;5.90;99.90
1015;DHT22;8170;48.118;11.628;2022-09-21T05:25:55;6.10;99.90
1015;DHT22;8170;48.118;11.628;2022-09-21T05:26:57;6.40;99.90
1015;DHT22;8170;48.118;11.628;2022-09-21T05:28:00;6.70;99.90
1015;DHT22;8170;48.118;11.628;2022-09-21T05:29:03;7.00;99.90
1015;DHT22;8170;48.118;11.628;2022-09-21T05:30:08;7.30;99.90
1015;DHT22;8170;48.118;11.628;2022-09-21T05:31:26;7.60;99.90
1015;DHT22;8170;48.118;11.628;2022-09-21T05:32:42;7.90;99.90
1015;DHT22;8170;48.118;11.628;2022-09-21T05:33:51;8.30;99.90
1015;DHT22;8170;48.118;11.628;2022-09-21T05:35:01;8.70;99.90
1015;DHT22;8170;48.118;11.628;2022-09-21T05:36:15;9.10;99.90
1015;DHT22;8170;48.118;11.628;2022-09-21T05:37:43;9.40;99.90
1015;DHT22;8170;48.118;11.628;2022-09-21T05:38:50;9.70;99.90
1015;DHT22;8170;48.118;11.628;2022-09-21T05:39:52;9.70;99.90
1015;DHT22;8170;48.118;11.628;2022-09-21T05:40:56;9.90;99.90
1015;DHT22;8170;48.118;11.628;2022-09-21T05:41:58;10.00;99.90
1015;DHT22;8170;48.118;11.628;2022-09-21T05:43:02;10.00;99.90
1015;DHT22;8170;48.118;11.628;2022-09-21T05:44:06;10.20;99.90
1015;DHT22;8170;48.118;11.628;2022-09-21T05:45:12;10.60;99.90
1015;DHT22;8170;48.118;11.628;2022-09-21T05:46:18;11.00;99.90
1015;DHT22;8170;48.118;11.628;2022-09-21T05:47:24;11.20;99.90
1015;DHT22;8170;48.118;11.628;2022-09-21T05:48:32;10.90;99.90
1015;DHT22;8170;48.118;11.628;2022-09-21T05:49:47;10.50;99.90
1015;DHT22;8170;48.118;11.628;2022-09-21T05:50:55;10.10;99.90
1015;DHT22;8170;48.118;11.628;2022-09-21T05:52:03;9.90;99.90
1015;DHT22;8170;48.118;11.628;2022-09-21T05:53:18;9.50;99.90
1015;DHT22;8170;48.118;11.628;2022-09-21T05:54:32;9.30;99.90
1015;DHT22;8170;48.118;11.628;2022-09-21T05:55:44;9.10;99.90
1015;DHT22;8170;48.118;11.628;2022-09-21T05:56:57;9.10;99.90
1015;DHT22;8170;48.118;11.628;2022-09-21T05:58:09;9.30;99.90
1015;DHT22;8170;48.118;11.628;2022-09-21T05:59:35;9.80;99.90
1015;DHT22;8170;48.118;11.628;2022-09-21T06:00:48;10.30;99.90
1015;DHT22;8170;48.118;11.628;2022-09-21T06:02:00;10.80;99.90
1015;DHT22;8170;48.118;11.628;2022-09-21T06:03:26;11.10;99.90
1015;DHT22;8170;48.118;11.628;2022-09-21T06:04:29;11.80;99.90
1015;DHT22;8170;48.118;11.628;2022-09-21T06:05:32;12.40;99.90
1015;DHT22;8170;48.118;11.628;2022-09-21T06:06:34;12.70;99.90
1015;DHT22;8170;48.118;11.628;2022-09-21T06:07:37;12.90;99.90
1015;DHT22;8170;48.118;11.628;2022-09-21T06:08:39;13.10;99.90
1015;DHT22;8170;48.118;11.628;2022-09-21T06:09:43;13.20;99.90
1015;DHT22;8170;48.118;11.628;2022-09-21T06:10:46;13.10;99.90
1015;DHT22;8170;48.118;11.628;2022-09-21T06:11:49;13.00;99.90
1015;DHT22;8170;48.118;11.628;2022-09-21T06:12:51;12.90;99.90
1015;DHT22;8170;48.118;11.628;2022-09-21T06:13:54;13.00;99.90
1015;DHT22;8170;48.118;11.628;2022-09-21T06:14:56;13.00;99.90
1015;DHT22;8170;48.118;11.628;2022-09-21T06:16:01;12.80;99.90
1015;DHT22;8170;48.118;11.628;2022-09-21T06:17:03;12.90;99.90
1015;DHT22;8170;48.118;11.628;2022-09-21T06:18:07;12.90;99.90
1015;DHT22;8170;48.118;11.628;2022-09-21T06:19:10;13.00;99.90
1015;DHT22;8170;48.118;11.628;2022-09-21T06:20:14;13.10;99.90
1015;DHT22;8170;48.118;11.628;2022-09-21T06:21:17;13.20;99.90
1015;DHT22;8170;48.118;11.628;2022-09-21T06:22:19;13.50;99.90
1015;DHT22;8170;48.118;11.628;2022-09-21T06:23:22;13.80;99.90
1015;DHT22;8170;48.118;11.628;2022-09-21T06:24:24;14.50;99.90
1015;DHT22;8170;48.118;11.628;2022-09-21T06:25:28;14.90;99.90
1015;DHT22;8170;48.118;11.628;2022-09-21T06:26:30;15.50;99.90
1015;DHT22;8170;48.118;11.628;2022-09-21T06:27:33;15.90;99.90
1015;DHT22;8170;48.118;11.628;2022-09-21T06:28:35;16.30;99.90
1015;DHT22;8170;48.118;11.628;2022-09-21T06:29:38;16.70;99.90
1015;DHT22;8170;48.118;11.628;2022-09-21T06:30:41;17.00;99.90
1015;DHT22;8170;48.118;11.628;2022-09-21T06:31:45;17.30;99.90
1015;DHT22;8170;48.118;11.628;2022-09-21T06:32:48;17.60;99.90
1015;DHT22;8170;48.118;11.628;2022-09-21T06:33:50;17.80;99.90
1015;DHT22;8170;48.118;11.628;2022-09-21T06:34:53;18.00;99.90
1015;DHT22;8170;48.118;11.628;2022-09-21T06:35:57;18.10;99.90
1015;DHT22;8170;48.118;11.628;2022-09-21T06:37:00;18.30;99.90
1015;DHT22;8170;48.118;11.628;2022-09-21T06:38:04;18.50;99.90
1015;DHT22;8170;48.118;11.628;2022-09-21T06:39:07;18.70;99.90
1015;DHT22;8170;48.118;11.628;2022-09-21T06:40:10;19.00;99.70
1015;DHT22;8170;48.118;11.628;2022-09-21T06:41:13;19.20;98.90
1015;DHT22;8170;48.118;11.628;2022-09-21T06:42:22;19.20;98.80
1015;DHT22;8170;48.118;11.628;2022-09-21T06:43:25;19.40;98.60
1015;DHT22;8170;48.118;11.628;2022-09-21T06:44:27;19.50;97.70
1015;DHT22;8170;48.118;11.628;2022-09-21T06:45:31;19.30;98.00
1015;DHT22;8170;48.118;11.628;2022-09-21T06:46:33;19.50;98.00
1015;DHT22;8170;48.118;11.628;2022-09-21T06:47:36;19.70;97.70
1015;DHT22;8170;48.118;11.628;2022-09-21T06:48:38;19.90;97.20
1015;DHT22;8170;48.118;11.628;2022-09-21T06:49:41;20.00;96.70
1015;DHT22;8170;48.118;11.628;2022-09-21T06:50:43;20.20;96.60
1015;DHT22;8170;48.118;11.628;2022-09-21T06:51:46;20.30;96.00
1015;DHT22;8170;48.118;11.628;2022-09-21T06:52:48;20.30;95.90
1015;DHT22;8170;48.118;11.628;2022-09-21T06:53:53;20.40;95.80
1015;DHT22;8170;48.118;11.628;2022-09-21T06:54:56;20.60;95.60
1015;DHT22;8170;48.118;11.628;2022-09-21T06:56:01;20.40;95.10
1015;DHT22;8170;48.118;11.628;2022-09-21T06:57:04;20.40;95.30
1015;DHT22;8170;48.118;11.628;2022-09-21T06:58:08;20.10;95.40
1015;DHT22;8170;48.118;11.628;2022-09-21T06:59:10;20.10;95.10
1015;DHT22;8170;48.118;11.628;2022-09-21T07:00:13;20.20;95.40
1015;DHT22;8170;48.118;11.628;2022-09-21T07:01:17;20.20;95.00
1015;DHT22;8170;48.118;11.628;2022-09-21T07:02:20;20.20;95.00
1015;DHT22;8170;48.118;11.628;2022-09-21T07:03:23;19.80;95.10
1015;DHT22;8170;48.118;11.628;2022-09-21T07:04:26;19.50;96.20
1015;DHT22;8170;48.118;11.628;2022-09-21T07:05:31;19.10;96.30
1015;DHT22;8170;48.118;11.628;2022-09-21T07:06:33;18.90;97.00